sensor_id;sensor_type;location;lat;lon;timestamp;temperature;humidity
55313;DHT22;46892;45.668;11.756;2023-07-29T00:02:00;21.90;80.80
55313;DHT22;46892;45.668;11.756;2023-07-29T00:04:26;22.00;80.50
55313;DHT22;46892;45.668;11.756;2023-07-29T00:06:51;21.90;80.60
55313;DHT22;46892;45.668;11.756;2023-07-29T00:09:17;22.00;80.50
55313;DHT22;46892;45.668;11.756;2023-07-29T00:11:43;22.00;80.30
55313;DHT22;46892;45.668;11.756;2023-07-29T00:14:09;22.00;80.20
55313;DHT22;46892;45.668;11.756;2023-07-29T00:16:34;22.00;80.00
55313;DHT22;46892;45.668;11.756;2023-07-29T00:19:01;22.00;80.10
55313;DHT22;46892;45.668;11.756;2023-07-29T00:21:27;22.00;80.00
55313;DHT22;46892;45.668;11.756;2023-07-29T00:23:53;22.10;80.00
55313;DHT22;46892;45.668;11.756;2023-07-29T00:26:19;22.00;79.80
55313;DHT22;46892;45.668;11.756;2023-07-29T00:28:45;22.00;80.00
55313;DHT22;46892;45.668;11.756;2023-07-29T00:31:11;22.00;80.00
55313;DHT22;46892;45.668;11.756;2023-07-29T00:33:37;22.00;80.20
55313;DHT22;46892;45.668;11.756;2023-07-29T00:36:03;22.00;80.40
55313;DHT22;46892;45.668;11.756;2023-07-29T00:38:28;22.00;80.40
55313;DHT22;46892;45.668;11.756;2023-07-29T00:40:59;22.10;80.40
55313;DHT22;46892;45.668;11.756;2023-07-29T00:43:25;22.10;80.10
55313;DHT22;46892;45.668;11.756;2023-07-29T00:45:51;22.10;79.90
55313;DHT22;46892;45.668;11.756;2023-07-29T00:48:17;22.10;79.90
55313;DHT22;46892;45.668;11.756;2023-07-29T00:50:44;22.00;80.00
55313;DHT22;46892;45.668;11.756;2023-07-29T00:53:10;22.00;80.50
55313;DHT22;46892;45.668;11.756;2023-07-29T00:55:36;21.90;80.60
55313;DHT22;46892;45.668;11.756;2023-07-29T00:58:03;21.90;80.50
55313;DHT22;46892;45.668;11.756;2023-07-29T01:00:28;21.90;80.50
55313;DHT22;46892;45.668;11.756;2023-07-29T01:02:54;21.80;80.60
55313;DHT22;46892;45.668;11.756;2023-07-29T01:05:20;21.80;80.30
55313;DHT22;46892;45.668;11.756;2023-07-29T01:10:43;21.80;80.30
55313;DHT22;46892;45.668;11.756;2023-07-29T01:13:25;21.80;80.30
55313;DHT22;46892;45.668;11.756;2023-07-29T01:16:21;21.70;80.60
55313;DHT22;46892;45.668;11.756;2023-07-29T01:18:53;21.80;80.70
55313;DHT22;46892;45.668;11.756;2023-07-29T01:21:21;21.80;80.20
55313;DHT22;46892;45.668;11.756;2023-07-29T01:23:47;21.90;79.50
55313;DHT22;46892;45.668;11.756;2023-07-29T01:26:13;21.90;78.40
55313;DHT22;46892;45.668;11.756;2023-07-29T01:28:40;21.90;78.30
55313;DHT22;46892;45.668;11.756;2023-07-29T01:31:10;22.00;77.90
55313;DHT22;46892;45.668;11.756;2023-07-29T01:33:42;21.90;78.00
55313;DHT22;46892;45.668;11.756;2023-07-29T01:36:20;21.80;78.50
55313;DHT22;46892;45.668;11.756;2023-07-29T01:38:48;21.70;78.80
55313;DHT22;46892;45.668;11.756;2023-07-29T01:41:16;21.70;78.90
55313;DHT22;46892;45.668;11.756;2023-07-29T01:43:42;21.70;79.40
55313;DHT22;46892;45.668;11.756;2023-07-29T01:46:13;21.70;79.20
55313;DHT22;46892;45.668;11.756;2023-07-29T01:48:39;21.70;79.80
55313;DHT22;46892;45.668;11.756;2023-07-29T01:51:06;21.60;80.00
55313;DHT22;46892;45.668;11.756;2023-07-29T01:53:32;21.60;79.70
55313;DHT22;46892;45.668;11.756;2023-07-29T01:55:57;21.60;79.60
55313;DHT22;46892;45.668;11.756;2023-07-29T01:58:24;21.50;79.80
55313;DHT22;46892;45.668;11.756;2023-07-29T02:00:49;21.50;80.20
55313;DHT22;46892;45.668;11.756;2023-07-29T02:03:15;21.50;79.60
55313;DHT22;46892;45.668;11.756;2023-07-29T02:05:41;21.60;79.10
55313;DHT22;46892;45.668;11.756;2023-07-29T02:08:09;21.50;78.80
55313;DHT22;46892;45.668;11.756;2023-07-29T02:10:35;21.40;78.50
55313;DHT22;46892;45.668;11.756;2023-07-29T02:13:01;21.30;79.50
55313;DHT22;46892;45.668;11.756;2023-07-29T02:15:27;21.30;80.10
55313;DHT22;46892;45.668;11.756;2023-07-29T02:17:53;21.30;79.10
55313;DHT22;46892;45.668;11.756;2023-07-29T02:20:19;21.30;80.00
55313;DHT22;46892;45.668;11.756;2023-07-29T02:22:45;21.30;79.00
55313;DHT22;46892;45.668;11.756;2023-07-29T02:25:11;21.30;79.00
55313;DHT22;46892;45.668;11.756;2023-07-29T02:27:37;21.20;79.10
55313;DHT22;46892;45.668;11.756;2023-07-29T02:30:03;21.30;79.40
55313;DHT22;46892;45.668;11.756;2023-07-29T02:32:29;21.30;78.70
55313;DHT22;46892;45.668;11.756;2023-07-29T02:34:55;21.30;78.30
55313;DHT22;46892;45.668;11.756;2023-07-29T02:37:21;21.30;78.20
55313;DHT22;46892;45.668;11.756;2023-07-29T02:39:46;21.30;78.10
55313;DHT22;46892;45.668;11.756;2023-07-29T02:42:12;21.30;77.60
55313;DHT22;46892;45.668;11.756;2023-07-29T02:44:39;21.40;77.20
55313;DHT22;46892;45.668;11.756;2023-07-29T02:47:05;21.50;76.90
55313;DHT22;46892;45.668;11.756;2023-07-29T02:49:31;21.40;76.70
55313;DHT22;46892;45.668;11.756;2023-07-29T02:51:57;21.50;76.60
55313;DHT22;46892;45.668;11.756;2023-07-29T02:54:22;21.40;76.50
55313;DHT22;46892;45.668;11.756;2023-07-29T02:56:50;21.40;76.50
55313;DHT22;46892;45.668;11.756;2023-07-29T02:59:16;21.40;76.30
55313;DHT22;46892;45.668;11.756;2023-07-29T03:01:42;21.40;76.30
55313;DHT22;46892;45.668;11.756;2023-07-29T03:04:08;21.40;76.40
55313;DHT22;46892;45.668;11.756;2023-07-29T03:06:33;21.30;77.00
55313;DHT22;46892;45.668;11.756;2023-07-29T03:08:59;21.20;77.80
55313;DHT22;46892;45.668;11.756;2023-07-29T03:11:25;21.20;78.20
55313;DHT22;46892;45.668;11.756;2023-07-29T03:13:50;21.20;78.50
55313;DHT22;46892;45.668;11.756;2023-07-29T03:16:17;21.20;78.80
55313;DHT22;46892;45.668;11.756;2023-07-29T03:18:44;21.20;78.50
55313;DHT22;46892;45.668;11.756;2023-07-29T03:21:10;21.20;78.80
55313;DHT22;46892;45.668;11.756;2023-07-29T03:23:37;21.20;78.10
55313;DHT22;46892;45.668;11.756;2023-07-29T03:26:03;21.20;77.90
55313;DHT22;46892;45.668;11.756;2023-07-29T03:28:43;21.20;77.90
55313;DHT22;46892;45.668;11.756;2023-07-29T03:31:09;21.20;78.70
55313;DHT22;46892;45.668;11.756;2023-07-29T03:33:35;21.10;79.20
55313;DHT22;46892;45.668;11.756;2023-07-29T03:36:01;21.10;79.00
55313;DHT22;46892;45.668;11.756;2023-07-29T03:38:26;21.00;78.80
55313;DHT22;46892;45.668;11.756;2023-07-29T03:40:53;21.00;80.00
55313;DHT22;46892;45.668;11.756;2023-07-29T03:43:21;20.90;80.10
55313;DHT22;46892;45.668;11.756;2023-07-29T03:45:47;20.90;80.20
55313;DHT22;46892;45.668;11.756;2023-07-29T03:48:13;20.90;80.00
55313;DHT22;46892;45.668;11.756;2023-07-29T03:50:38;20.80;80.00
55313;DHT22;46892;45.668;11.756;2023-07-29T03:53:05;20.70;79.80
55313;DHT22;46892;45.668;11.756;2023-07-29T03:55:31;20.50;79.70
55313;DHT22;46892;45.668;11.756;2023-07-29T03:58:00;20.40;79.50
55313;DHT22;46892;45.668;11.756;2023-07-29T04:00:26;20.40;79.60
55313;DHT22;46892;45.668;11.756;2023-07-29T04:02:53;20.40;79.40
55313;DHT22;46892;45.668;11.756;2023-07-29T04:05:19;20.60;80.00
55313;DHT22;46892;45.668;11.756;2023-07-29T04:07:45;20.70;79.90
55313;DHT22;46892;45.668;11.756;2023-07-29T04:10:11;20.70;79.80
55313;DHT22;46892;45.668;11.756;2023-07-29T04:12:37;20.70;80.50
55313;DHT22;46892;45.668;11.756;2023-07-29T04:15:02;20.80;80.90
55313;DHT22;46892;45.668;11.756;2023-07-29T04:17:28;20.80;80.60
55313;DHT22;46892;45.668;11.756;2023-07-29T04:19:54;20.80;80.60
55313;DHT22;46892;45.668;11.756;2023-07-29T04:22:20;20.80;80.80
55313;DHT22;46892;45.668;11.756;2023-07-29T04:24:46;20.80;81.20
55313;DHT22;46892;45.668;11.756;2023-07-29T04:27:12;20.90;81.40
55313;DHT22;46892;45.668;11.756;2023-07-29T04:29:38;20.90;81.90
55313;DHT22;46892;45.668;11.756;2023-07-29T04:32:04;21.00;81.90
55313;DHT22;46892;45.668;11.756;2023-07-29T04:34:29;21.00;82.00
55313;DHT22;46892;45.668;11.756;2023-07-29T04:36:55;21.10;81.90
55313;DHT22;46892;45.668;11.756;2023-07-29T04:39:21;21.20;80.60
55313;DHT22;46892;45.668;11.756;2023-07-29T04:41:47;21.20;80.70
55313;DHT22;46892;45.668;11.756;2023-07-29T04:44:12;21.20;80.70
55313;DHT22;46892;45.668;11.756;2023-07-29T04:46:38;21.30;81.30
55313;DHT22;46892;45.668;11.756;2023-07-29T04:49:04;21.50;81.40
55313;DHT22;46892;45.668;11.756;2023-07-29T04:51:30;21.70;80.90
55313;DHT22;46892;45.668;11.756;2023-07-29T04:53:57;22.00;80.70
55313;DHT22;46892;45.668;11.756;2023-07-29T04:56:23;22.20;80.70
55313;DHT22;46892;45.668;11.756;2023-07-29T04:58:49;22.40;79.20
55313;DHT22;46892;45.668;11.756;2023-07-29T05:01:14;22.50;77.00
55313;DHT22;46892;45.668;11.756;2023-07-29T05:03:40;22.80;76.00
55313;DHT22;46892;45.668;11.756;2023-07-29T05:06:06;23.00;75.50
55313;DHT22;46892;45.668;11.756;2023-07-29T05:08:32;23.30;74.50
55313;DHT22;46892;45.668;11.756;2023-07-29T05:10:58;23.50;74.30
55313;DHT22;46892;45.668;11.756;2023-07-29T05:13:24;23.70;74.60
55313;DHT22;46892;45.668;11.756;2023-07-29T05:15:50;23.80;75.00
55313;DHT22;46892;45.668;11.756;2023-07-29T05:18:16;23.90;74.90
55313;DHT22;46892;45.668;11.756;2023-07-29T05:20:42;23.80;74.70
55313;DHT22;46892;45.668;11.756;2023-07-29T05:23:08;23.70;74.80
55313;DHT22;46892;45.668;11.756;2023-07-29T05:25:34;23.30;75.30
55313;DHT22;46892;45.668;11.756;2023-07-29T05:28:03;23.20;75.60
55313;DHT22;46892;45.668;11.756;2023-07-29T05:30:29;23.10;75.90
55313;DHT22;46892;45.668;11.756;2023-07-29T05:33:00;23.00;76.40
55313;DHT22;46892;45.668;11.756;2023-07-29T05:35:26;23.00;77.40
55313;DHT22;46892;45.668;11.756;2023-07-29T05:37:52;23.20;76.90
55313;DHT22;46892;45.668;11.756;2023-07-29T05:40:18;23.40;76.20
55313;DHT22;46892;45.668;11.756;2023-07-29T05:42:44;23.80;74.90
55313;DHT22;46892;45.668;11.756;2023-07-29T05:45:11;24.10;75.40
55313;DHT22;46892;45.668;11.756;2023-07-29T05:47:37;24.50;73.80
55313;DHT22;46892;45.668;11.756;2023-07-29T05:50:04;24.80;73.40
55313;DHT22;46892;45.668;11.756;2023-07-29T05:52:33;25.00;71.70
55313;DHT22;46892;45.668;11.756;2023-07-29T05:54:59;25.10;70.70
55313;DHT22;46892;45.668;11.756;2023-07-29T05:57:24;25.10;71.10
55313;DHT22;46892;45.668;11.756;2023-07-29T05:59:50;24.90;70.50
55313;DHT22;46892;45.668;11.756;2023-07-29T06:02:16;24.70;72.10
55313;DHT22;46892;45.668;11.756;2023-07-29T06:04:42;24.70;72.50
55313;DHT22;46892;45.668;11.756;2023-07-29T06:07:07;24.80;72.60
55313;DHT22;46892;45.668;11.756;2023-07-29T06:09:33;24.90;72.00
55313;DHT22;46892;45.668;11.756;2023-07-29T06:11:59;25.00;73.80
55313;DHT22;46892;45.668;11.756;2023-07-29T06:14:25;25.30;72.60
55313;DHT22;46892;45.668;11.756;2023-07-29T06:16:51;25.50;70.00
55313;DHT22;46892;45.668;11.756;2023-07-29T06:19:18;25.70;71.30
55313;DHT22;46892;45.668;11.756;2023-07-29T06:21:43;25.90;71.20
55313;DHT22;46892;45.668;11.756;2023-07-29T06:24:09;26.10;69.40
55313;DHT22;46892;45.668;11.756;2023-07-29T06:26:35;26.20;70.60
55313;DHT22;46892;45.668;11.756;2023-07-29T06:29:01;26.20;68.50
55313;DHT22;46892;45.668;11.756;2023-07-29T06:31:26;26.30;68.70
55313;DHT22;46892;45.668;11.756;2023-07-29T06:33:52;26.30;68.30
55313;DHT22;46892;45.668;11.756;2023-07-29T06:36:20;26.30;68.10
55313;DHT22;46892;45.668;11.756;2023-07-29T06:38:45;26.30;69.20
55313;DHT22;46892;45.668;11.756;2023-07-29T06:41:11;26.30;69.70
55313;DHT22;46892;45.668;11.756;2023-07-29T06:43:37;26.30;69.40
55313;DHT22;46892;45.668;11.756;2023-07-29T06:46:03;26.40;69.90
55313;DHT22;46892;45.668;11.756;2023-07-29T06:48:28;26.40;69.90
55313;DHT22;46892;45.668;11.756;2023-07-29T06:50:54;26.40;69.00
55313;DHT22;46892;45.668;11.756;2023-07-29T06:53:21;26.50;68.70
55313;DHT22;46892;45.668;11.756;2023-07-29T06:55:47;26.30;68.50
55313;DHT22;46892;45.668;11.756;2023-07-29T06:58:13;26.30;69.00
55313;DHT22;46892;45.668;11.756;2023-07-29T07:00:39;26.40;69.20
55313;DHT22;46892;45.668;11.756;2023-07-29T07:03:04;26.40;68.60
55313;DHT22;46892;45.668;11.756;2023-07-29T07:05:30;26.70;68.70
55313;DHT22;46892;45.668;11.756;2023-07-29T07:07:56;26.90;67.70
55313;DHT22;46892;45.668;11.756;2023-07-29T07:10:22;27.00;66.60
55313;DHT22;46892;45.668;11.756;2023-07-29T07:12:47;26.90;66.80
55313;DHT22;46892;45.668;11.756;2023-07-29T07:15:13;26.90;67.20
55313;DHT22;46892;45.668;11.756;2023-07-29T07:17:39;27.10;68.80
55313;DHT22;46892;45.668;11.756;2023-07-29T07:20:05;27.20;67.30
55313;DHT22;46892;45.668;11.756;2023-07-29T07:22:31;27.10;66.30
55313;DHT22;46892;45.668;11.756;2023-07-29T07:24:57;26.90;67.20
55313;DHT22;46892;45.668;11.756;2023-07-29T07:27:22;27.00;68.10
55313;DHT22;46892;45.668;11.756;2023-07-29T07:29:48;27.30;69.20
55313;DHT22;46892;45.668;11.756;2023-07-29T07:32:14;27.50;66.70
55313;DHT22;46892;45.668;11.756;2023-07-29T07:34:40;27.70;67.30
55313;DHT22;46892;45.668;11.756;2023-07-29T07:37:06;27.90;65.60
55313;DHT22;46892;45.668;11.756;2023-07-29T07:39:32;27.90;64.70
55313;DHT22;46892;45.668;11.756;2023-07-29T07:41:58;27.90;66.70
55313;DHT22;46892;45.668;11.756;2023-07-29T07:44:23;28.00;64.30
55313;DHT22;46892;45.668;11.756;2023-07-29T07:46:52;28.00;64.70
55313;DHT22;46892;45.668;11.756;2023-07-29T07:49:18;28.00;64.70
55313;DHT22;46892;45.668;11.756;2023-07-29T07:51:44;28.00;66.40
55313;DHT22;46892;45.668;11.756;2023-07-29T07:54:10;28.00;65.10
55313;DHT22;46892;45.668;11.756;2023-07-29T07:56:35;28.20;65.10
55313;DHT22;46892;45.668;11.756;2023-07-29T07:59:01;28.30;62.60
55313;DHT22;46892;45.668;11.756;2023-07-29T08:01:27;28.30;64.00
55313;DHT22;46892;45.668;11.756;2023-07-29T08:03:52;28.20;63.60
55313;DHT22;46892;45.668;11.756;2023-07-29T08:06:18;28.20;65.60
55313;DHT22;46892;45.668;11.756;2023-07-29T08:08:44;28.20;64.40
55313;DHT22;46892;45.668;11.756;2023-07-29T08:11:10;28.10;64.40
55313;DHT22;46892;45.668;11.756;2023-07-29T08:13:36;28.20;64.90
55313;DHT22;46892;45.668;11.756;2023-07-29T08:16:02;28.20;64.60
55313;DHT22;46892;45.668;11.756;2023-07-29T08:18:28;28.10;65.50
55313;DHT22;46892;45.668;11.756;2023-07-29T08:20:55;28.20;64.70
55313;DHT22;46892;45.668;11.756;2023-07-29T08:23:24;28.20;63.60
55313;DHT22;46892;45.668;11.756;2023-07-29T08:25:53;28.20;63.90
55313;DHT22;46892;45.668;11.756;2023-07-29T08:28:19;27.90;64.70
55313;DHT22;46892;45.668;11.756;2023-07-29T08:30:45;28.00;67.20
55313;DHT22;46892;45.668;11.756;2023-07-29T08:33:10;28.10;67.30
55313;DHT22;46892;45.668;11.756;2023-07-29T08:35:36;28.30;65.90
55313;DHT22;46892;45.668;11.756;2023-07-29T08:38:02;28.30;64.80
55313;DHT22;46892;45.668;11.756;2023-07-29T08:40:32;28.30;64.00
55313;DHT22;46892;45.668;11.756;2023-07-29T08:42:59;28.40;65.60
55313;DHT22;46892;45.668;11.756;2023-07-29T08:45:27;28.40;64.90
55313;DHT22;46892;45.668;11.756;2023-07-29T08:47:57;28.30;63.40
55313;DHT22;46892;45.668;11.756;2023-07-29T08:50:24;28.30;65.80
55313;DHT22;46892;45.668;11.756;2023-07-29T08:52:52;28.40;64.70
55313;DHT22;46892;45.668;11.756;2023-07-29T08:55:19;28.40;66.40
55313;DHT22;46892;45.668;11.756;2023-07-29T08:57:45;28.30;65.20
55313;DHT22;46892;45.668;11.756;2023-07-29T09:00:12;28.30;66.30
55313;DHT22;46892;45.668;11.756;2023-07-29T09:02:38;28.30;65.70
55313;DHT22;46892;45.668;11.756;2023-07-29T09:05:04;28.30;63.90
55313;DHT22;46892;45.668;11.756;2023-07-29T09:07:31;28.30;64.50
55313;DHT22;46892;45.668;11.756;2023-07-29T09:09:58;28.30;65.70
55313;DHT22;46892;45.668;11.756;2023-07-29T09:12:24;28.50;65.10
55313;DHT22;46892;45.668;11.756;2023-07-29T09:14:53;28.50;63.20
55313;DHT22;46892;45.668;11.756;2023-07-29T09:17:20;28.30;62.00
55313;DHT22;46892;45.668;11.756;2023-07-29T09:19:49;28.00;64.70
55313;DHT22;46892;45.668;11.756;2023-07-29T09:22:20;27.90;63.80
55313;DHT22;46892;45.668;11.756;2023-07-29T09:24:46;27.80;65.80
55313;DHT22;46892;45.668;11.756;2023-07-29T09:27:30;27.80;65.80
55313;DHT22;46892;45.668;11.756;2023-07-29T09:29:58;27.80;67.00
55313;DHT22;46892;45.668;11.756;2023-07-29T09:32:25;27.90;66.30
55313;DHT22;46892;45.668;11.756;2023-07-29T09:34:51;27.90;64.50
55313;DHT22;46892;45.668;11.756;2023-07-29T09:37:23;27.70;64.10
55313;DHT22;46892;45.668;11.756;2023-07-29T09:39:50;27.50;66.10
55313;DHT22;46892;45.668;11.756;2023-07-29T09:42:20;27.30;66.10
55313;DHT22;46892;45.668;11.756;2023-07-29T09:44:48;27.20;65.60
55313;DHT22;46892;45.668;11.756;2023-07-29T09:47:24;27.30;67.20
55313;DHT22;46892;45.668;11.756;2023-07-29T09:49:51;27.40;66.50
55313;DHT22;46892;45.668;11.756;2023-07-29T09:52:18;27.50;67.50
55313;DHT22;46892;45.668;11.756;2023-07-29T09:54:45;27.70;68.80
55313;DHT22;46892;45.668;11.756;2023-07-29T09:57:14;27.60;65.30
55313;DHT22;46892;45.668;11.756;2023-07-29T09:59:41;27.70;66.80
55313;DHT22;46892;45.668;11.756;2023-07-29T10:02:13;27.90;66.70
55313;DHT22;46892;45.668;11.756;2023-07-29T10:04:41;28.20;64.20
55313;DHT22;46892;45.668;11.756;2023-07-29T10:07:09;28.40;65.90
55313;DHT22;46892;45.668;11.756;2023-07-29T10:09:36;28.60;64.50
55313;DHT22;46892;45.668;11.756;2023-07-29T10:12:05;28.70;62.90
55313;DHT22;46892;45.668;11.756;2023-07-29T10:14:32;28.70;64.30
55313;DHT22;46892;45.668;11.756;2023-07-29T10:16:58;28.80;66.20
55313;DHT22;46892;45.668;11.756;2023-07-29T10:19:25;28.90;65.30
55313;DHT22;46892;45.668;11.756;2023-07-29T10:21:52;29.00;64.10
55313;DHT22;46892;45.668;11.756;2023-07-29T10:24:20;28.90;60.30
55313;DHT22;46892;45.668;11.756;2023-07-29T10:26:50;28.80;64.30
55313;DHT22;46892;45.668;11.756;2023-07-29T10:29:19;28.80;61.00
55313;DHT22;46892;45.668;11.756;2023-07-29T10:31:48;28.80;64.90
55313;DHT22;46892;45.668;11.756;2023-07-29T10:34:17;28.80;63.30
55313;DHT22;46892;45.668;11.756;2023-07-29T10:36:43;28.80;63.50
55313;DHT22;46892;45.668;11.756;2023-07-29T10:39:09;28.80;63.90
55313;DHT22;46892;45.668;11.756;2023-07-29T10:41:55;28.90;62.70
55313;DHT22;46892;45.668;11.756;2023-07-29T10:47:38;28.90;61.70
55313;DHT22;46892;45.668;11.756;2023-07-29T10:50:20;28.90;61.40
55313;DHT22;46892;45.668;11.756;2023-07-29T10:52:50;28.90;62.10
55313;DHT22;46892;45.668;11.756;2023-07-29T10:55:25;28.80;61.70
55313;DHT22;46892;45.668;11.756;2023-07-29T10:57:51;28.80;60.70
55313;DHT22;46892;45.668;11.756;2023-07-29T11:00:19;28.70;62.20
55313;DHT22;46892;45.668;11.756;2023-07-29T11:03:06;28.70;61.40
55313;DHT22;46892;45.668;11.756;2023-07-29T11:05:52;28.70;62.30
55313;DHT22;46892;45.668;11.756;2023-07-29T11:08:28;28.60;60.90
55313;DHT22;46892;45.668;11.756;2023-07-29T11:13:28;28.40;60.90
55313;DHT22;46892;45.668;11.756;2023-07-29T11:15:54;28.40;61.00
55313;DHT22;46892;45.668;11.756;2023-07-29T11:18:21;28.30;62.20
55313;DHT22;46892;45.668;11.756;2023-07-29T11:20:47;28.50;65.00
55313;DHT22;46892;45.668;11.756;2023-07-29T11:23:16;28.70;65.00
55313;DHT22;46892;45.668;11.756;2023-07-29T11:25:42;28.70;61.70
55313;DHT22;46892;45.668;11.756;2023-07-29T11:28:08;28.80;60.90
55313;DHT22;46892;45.668;11.756;2023-07-29T11:30:34;28.70;60.10
55313;DHT22;46892;45.668;11.756;2023-07-29T11:32:59;28.70;63.20
55313;DHT22;46892;45.668;11.756;2023-07-29T11:35:26;28.80;63.60
55313;DHT22;46892;45.668;11.756;2023-07-29T11:37:53;28.90;59.70
55313;DHT22;46892;45.668;11.756;2023-07-29T11:40:21;28.90;60.60
55313;DHT22;46892;45.668;11.756;2023-07-29T11:42:49;28.90;59.60
55313;DHT22;46892;45.668;11.756;2023-07-29T11:45:16;28.90;60.00
55313;DHT22;46892;45.668;11.756;2023-07-29T11:47:42;29.00;62.80
55313;DHT22;46892;45.668;11.756;2023-07-29T11:50:10;29.20;61.00
55313;DHT22;46892;45.668;11.756;2023-07-29T11:52:44;29.20;59.20
55313;DHT22;46892;45.668;11.756;2023-07-29T11:55:11;29.30;59.20
55313;DHT22;46892;45.668;11.756;2023-07-29T11:57:38;29.50;59.50
55313;DHT22;46892;45.668;11.756;2023-07-29T12:00:05;29.50;58.80
55313;DHT22;46892;45.668;11.756;2023-07-29T12:02:32;29.60;58.80
55313;DHT22;46892;45.668;11.756;2023-07-29T12:04:58;29.60;55.80
55313;DHT22;46892;45.668;11.756;2023-07-29T12:07:25;29.50;59.90
55313;DHT22;46892;45.668;11.756;2023-07-29T12:09:51;29.60;59.40
55313;DHT22;46892;45.668;11.756;2023-07-29T12:12:17;29.60;58.60
55313;DHT22;46892;45.668;11.756;2023-07-29T12:14:46;29.70;56.80
55313;DHT22;46892;45.668;11.756;2023-07-29T12:17:12;29.70;58.30
55313;DHT22;46892;45.668;11.756;2023-07-29T12:19:39;29.70;58.80
55313;DHT22;46892;45.668;11.756;2023-07-29T12:22:07;29.80;60.30
55313;DHT22;46892;45.668;11.756;2023-07-29T12:24:35;29.90;59.70
55313;DHT22;46892;45.668;11.756;2023-07-29T12:27:01;30.00;58.00
55313;DHT22;46892;45.668;11.756;2023-07-29T12:29:28;30.10;57.70
55313;DHT22;46892;45.668;11.756;2023-07-29T12:32:01;30.10;58.60
55313;DHT22;46892;45.668;11.756;2023-07-29T12:34:28;30.20;58.80
55313;DHT22;46892;45.668;11.756;2023-07-29T12:36:56;30.10;56.70
55313;DHT22;46892;45.668;11.756;2023-07-29T12:39:31;30.20;57.10
55313;DHT22;46892;45.668;11.756;2023-07-29T12:41:59;30.10;55.40
55313;DHT22;46892;45.668;11.756;2023-07-29T12:44:35;30.20;55.40
55313;DHT22;46892;45.668;11.756;2023-07-29T12:47:02;30.10;53.90
55313;DHT22;46892;45.668;11.756;2023-07-29T12:49:29;30.10;55.90
55313;DHT22;46892;45.668;11.756;2023-07-29T12:51:56;30.10;55.90
55313;DHT22;46892;45.668;11.756;2023-07-29T12:54:22;30.10;52.90
55313;DHT22;46892;45.668;11.756;2023-07-29T12:56:48;30.10;53.90
55313;DHT22;46892;45.668;11.756;2023-07-29T12:59:14;30.10;53.90
55313;DHT22;46892;45.668;11.756;2023-07-29T13:01:40;30.10;56.30
55313;DHT22;46892;45.668;11.756;2023-07-29T13:04:06;30.10;54.20
55313;DHT22;46892;45.668;11.756;2023-07-29T13:06:31;29.90;52.60
55313;DHT22;46892;45.668;11.756;2023-07-29T13:08:57;29.80;53.90
55313;DHT22;46892;45.668;11.756;2023-07-29T13:11:23;29.70;56.60
55313;DHT22;46892;45.668;11.756;2023-07-29T13:13:49;29.70;56.00
55313;DHT22;46892;45.668;11.756;2023-07-29T13:16:15;29.80;58.00
55313;DHT22;46892;45.668;11.756;2023-07-29T13:18:43;29.90;55.80
55313;DHT22;46892;45.668;11.756;2023-07-29T13:21:08;29.90;58.60
55313;DHT22;46892;45.668;11.756;2023-07-29T13:23:34;29.90;58.20
55313;DHT22;46892;45.668;11.756;2023-07-29T13:26:00;30.00;57.70
55313;DHT22;46892;45.668;11.756;2023-07-29T13:28:26;30.00;56.00
55313;DHT22;46892;45.668;11.756;2023-07-29T13:30:52;30.10;57.00
55313;DHT22;46892;45.668;11.756;2023-07-29T13:33:17;30.20;55.20
55313;DHT22;46892;45.668;11.756;2023-07-29T13:35:43;30.20;55.00
55313;DHT22;46892;45.668;11.756;2023-07-29T13:38:09;30.10;55.20
55313;DHT22;46892;45.668;11.756;2023-07-29T13:40:36;30.00;55.80
55313;DHT22;46892;45.668;11.756;2023-07-29T13:43:02;30.00;58.40
55313;DHT22;46892;45.668;11.756;2023-07-29T13:45:28;30.10;57.90
55313;DHT22;46892;45.668;11.756;2023-07-29T13:47:53;30.20;56.30
55313;DHT22;46892;45.668;11.756;2023-07-29T13:50:19;30.10;58.10
55313;DHT22;46892;45.668;11.756;2023-07-29T13:52:45;30.20;58.20
55313;DHT22;46892;45.668;11.756;2023-07-29T13:55:11;30.20;55.30
55313;DHT22;46892;45.668;11.756;2023-07-29T13:57:37;30.10;56.30
55313;DHT22;46892;45.668;11.756;2023-07-29T14:00:04;30.20;58.60
55313;DHT22;46892;45.668;11.756;2023-07-29T14:02:30;30.30;55.80
55313;DHT22;46892;45.668;11.756;2023-07-29T14:04:57;30.30;57.90
55313;DHT22;46892;45.668;11.756;2023-07-29T14:07:22;30.30;55.10
55313;DHT22;46892;45.668;11.756;2023-07-29T14:09:48;30.30;56.10
55313;DHT22;46892;45.668;11.756;2023-07-29T14:12:14;30.30;57.40
55313;DHT22;46892;45.668;11.756;2023-07-29T14:14:41;30.30;55.40
55313;DHT22;46892;45.668;11.756;2023-07-29T14:17:07;30.30;56.70
55313;DHT22;46892;45.668;11.756;2023-07-29T14:19:34;30.20;56.70
55313;DHT22;46892;45.668;11.756;2023-07-29T14:22:00;30.20;56.00
55313;DHT22;46892;45.668;11.756;2023-07-29T14:24:26;30.00;56.80
55313;DHT22;46892;45.668;11.756;2023-07-29T14:26:51;29.90;58.50
55313;DHT22;46892;45.668;11.756;2023-07-29T14:29:17;29.80;55.60
55313;DHT22;46892;45.668;11.756;2023-07-29T14:31:43;29.70;58.00
55313;DHT22;46892;45.668;11.756;2023-07-29T14:34:10;29.70;58.00
55313;DHT22;46892;45.668;11.756;2023-07-29T14:36:36;29.70;59.00
55313;DHT22;46892;45.668;11.756;2023-07-29T14:39:02;29.80;58.00
55313;DHT22;46892;45.668;11.756;2023-07-29T14:41:27;29.90;59.30
55313;DHT22;46892;45.668;11.756;2023-07-29T14:43:53;30.10;59.00
55313;DHT22;46892;45.668;11.756;2023-07-29T14:46:19;30.20;58.00
55313;DHT22;46892;45.668;11.756;2023-07-29T14:48:44;30.30;57.60
55313;DHT22;46892;45.668;11.756;2023-07-29T14:51:12;30.40;58.10
55313;DHT22;46892;45.668;11.756;2023-07-29T14:53:38;30.40;55.60
55313;DHT22;46892;45.668;11.756;2023-07-29T14:56:04;30.40;57.10
55313;DHT22;46892;45.668;11.756;2023-07-29T14:58:30;30.50;55.20
55313;DHT22;46892;45.668;11.756;2023-07-29T15:00:56;30.60;59.20
55313;DHT22;46892;45.668;11.756;2023-07-29T15:03:23;30.60;58.90
55313;DHT22;46892;45.668;11.756;2023-07-29T15:05:49;30.60;56.20
55313;DHT22;46892;45.668;11.756;2023-07-29T15:08:15;30.60;57.20
55313;DHT22;46892;45.668;11.756;2023-07-29T15:10:40;30.50;58.80
55313;DHT22;46892;45.668;11.756;2023-07-29T15:13:10;30.30;58.20
55313;DHT22;46892;45.668;11.756;2023-07-29T15:15:35;30.20;58.20
55313;DHT22;46892;45.668;11.756;2023-07-29T15:18:02;30.10;58.00
55313;DHT22;46892;45.668;11.756;2023-07-29T15:20:27;30.20;59.00
55313;DHT22;46892;45.668;11.756;2023-07-29T15:22:53;30.20;59.70